Tiempo atmosférico en la estación meteorológica de La Pobla de Massaluca, Tarragona (365 m.)



Fecha
DESCASC
Temp. máxima en grados centígrados (hora)
DESCASC
Temp. mínima en grados centígrados (hora)
DESCASC
Temp. media en grados centígrados
DESCASC
Racha de viento máxima en m/sg (hora)
DESCASC
Velocidad máxima media en intervalos de 10 minutos(hora)
DESCASC
Precipitaciones diarias en mm
DESCASC
Precipitaciones de 00:00 a 06:00 en mm
DESCASC
Precipitaciones de 06:00 a 12:00 en mm
DESCASC
Precipitaciones de 12:00 a 18:00 en mm
DESCASC
Precipitaciones de 18:00 a 24:00 en mm
DESCASC
23-06-2019 -- (--) -- (--) -- -- (--) -- (--) -- -- -- -- --
22-06-2019 -- (--) -- (--) -- -- (--) -- (--) -- 0 -- -- --
21-06-2019 26.2 (19:20) 15.7 (06:50) 21 7.22 (23:10) 4.44 (22:20) 0 0 0 0 0
20-06-2019 28.9 (13:40) 17.8 (00:00) 23.3 11.67 (18:10) 6.39 (17:30) 0 0 0 0 0
19-06-2019 32.6 (16:40) 16.4 (00:00) 24.5 9.44 (18:30) 4.72 (19:20) 0 0 0 0 0
18-06-2019 30 (14:30) 18 (00:00) 24 15 (15:30) 7.5 (15:20) 0 0 0 0 0
17-06-2019 32.3 (15:40) 15.8 (00:00) 24 12.22 (18:50) 7.78 (18:50) 0 0 0 0 0
16-06-2019 28.7 (15:10) 14 (00:00) 21.4 9.72 (16:30) 5.56 (19:30) 0 0 0 0 0
15-06-2019 27.2 (18:00) 13.7 (00:00) 20.5 10.83 (10:30) 6.67 (09:50) 0 0 0 0 0
14-06-2019 29.1 (18:30) 14.6 (00:00) 21.9 9.17 (19:50) 5 (19:50) 0 0 0 0 0
13-06-2019 23.3 (15:10) 12.6 (00:00) 17.9 13.06 (18:30) 7.22 (18:30) 0 0 0 0 0
12-06-2019 23.9 (17:00) 9 (00:00) 16.4 10.28 (19:10) 5.28 (18:50) 0 0 0 0 0
11-06-2019 19.1 (19:20) 10.9 (00:00) 15 13.06 (19:20) 9.17 (19:20) 0 0 0 0 0
10-06-2019 25.2 (17:50) 13.3 (00:00) 19.3 12.78 (08:30) 8.33 (12:20) 0 0 0 0 0
09-06-2019 28.4 (17:20) 15.3 (00:00) 21.8 9.17 (23:40) 5.28 (01:20) 0 0 0 0 0
08-06-2019 24.5 (14:50) 12 (00:00) 18.3 12.78 (15:30) 6.94 (15:30) 0 0 0 0 0
07-06-2019 24.5 (18:10) 15.5 (00:00) 20 13.61 (09:50) 9.17 (10:10) 0 0 0 0 0
06-06-2019 23.6 (13:10) 11.4 (00:00) 17.5 16.11 (19:30) 8.06 (19:00) 0 0 0 0 0
05-06-2019 19.7 (18:40) 14.4 (00:00) 17.1 17.5 (14:50) 10.56 (15:50) 0 0 0 0 0
04-06-2019 27.3 (14:40) 16.6 (00:00) 21.9 13.33 (17:10) 8.89 (17:10) 0 0 0 0 0
03-06-2019 28.3 (14:30) 17.3 (00:00) 22.8 13.61 (16:10) 6.39 (17:00) 0 0 0 0 0
02-06-2019 29.3 (15:10) 15.6 (00:00) 22.4 12.78 (17:30) 5.56 (18:40) 0 0 0 0 0
01-06-2019 29.5 (14:50) 14.9 (00:00) 22.2 11.94 (19:40) 5.28 (14:00) 0 0 0 0 0
31-05-2019 27.7 (14:50) 14.2 (00:00) 21 11.39 (18:40) 5 (19:30) 0 0 0 0 0
30-05-2019 28.2 (18:20) 11.6 (00:00) 19.9 9.44 (00:50) 6.11 (00:20) 0 0 0 0 0
29-05-2019 22.7 (17:00) 10 (00:00) 16.4 13.89 (02:20) 9.44 (02:20) 0 0 0 0 0
28-05-2019 20.9 (17:30) 11.2 (00:00) 16 20.28 (18:20) 13.89 (18:50) 0 0 0 0 0
27-05-2019 24.7 (18:20) 11.6 (00:00) 18.2 13.61 (19:20) 10 (19:20) 0 0 0 0 0
26-05-2019 22.9 (17:50) 10.5 (00:00) 16.7 12.5 (16:50) 7.5 (01:00) 0 0 0 0 0
25-05-2019 22 (18:00) 11.2 (00:00) 16.6 13.06 (22:50) 7.78 (16:50) 2.2 0 0 0 2.2

Gráficas

Temp. máximas Temp. mínimas Temp. medias Precipitaciones Rachas de viento máximas Velocidades máximas media en intervalos de 10 minutos

Datos horarios

Fecha y hora oficial Temperatura (ºC) Velocidad del viento (km/h) Dirección del viento Racha (km/h) Dirección de racha Precipitación (mm) Presión (hPa) Tendencia (hPa) Humedad (%)
2019-06-23 23:00:00 -- -- -- -- -- -- -- -- --
2019-06-23 22:00:00 -- -- -- -- -- -- -- -- --
2019-06-23 21:00:00 -- -- -- -- -- -- -- -- --
2019-06-23 20:00:00 -- -- -- -- -- -- -- -- --
2019-06-23 19:00:00 -- -- -- -- -- -- -- -- --
2019-06-23 18:00:00 -- -- -- -- -- -- -- -- --
2019-06-23 17:00:00 -- -- -- -- -- -- -- -- --
2019-06-23 16:00:00 -- -- -- -- -- -- -- -- --
2019-06-23 15:00:00 -- -- -- -- -- -- -- -- --
2019-06-23 14:00:00 -- -- -- -- -- -- -- -- --
2019-06-23 13:00:00 -- -- -- -- -- -- -- -- --
2019-06-23 12:00:00 -- -- -- -- -- -- -- -- --
2019-06-23 11:00:00 -- -- -- -- -- -- -- -- --
2019-06-23 10:00:00 -- -- -- -- -- -- -- -- --
2019-06-23 09:00:00 -- -- -- -- -- -- -- -- --
2019-06-23 08:00:00 -- -- -- -- -- -- -- -- --
2019-06-23 07:00:00 -- -- -- -- -- -- -- -- --
2019-06-23 06:00:00 -- -- -- -- -- -- -- -- --
2019-06-23 05:00:00 -- -- -- -- -- -- -- -- --
2019-06-23 04:00:00 -- -- -- -- -- -- -- -- --
2019-06-23 03:00:00 -- -- -- -- -- -- -- -- --
2019-06-23 02:00:00 -- -- -- -- -- -- -- -- --
2019-06-23 01:00:00 -- -- -- -- -- -- -- -- --
2019-06-23 00:00:00 -- -- -- -- -- -- -- -- --
2019-06-22 23:00:00 -- -- -- -- -- -- -- -- --
2019-06-22 22:00:00 -- -- -- -- -- -- -- -- --
2019-06-22 21:00:00 -- -- -- -- -- -- -- -- --
2019-06-22 20:00:00 -- -- -- -- -- -- -- -- --
2019-06-22 19:00:00 -- -- -- -- -- -- -- -- --
2019-06-22 18:00:00 -- -- -- -- -- -- -- -- --
2019-06-22 17:00:00 -- -- -- -- -- -- -- -- --
2019-06-22 16:00:00 -- -- -- -- -- -- -- -- --
2019-06-22 15:00:00 -- -- -- -- -- -- -- -- --
2019-06-22 14:00:00 -- -- -- -- -- -- -- -- --
2019-06-22 13:00:00 -- -- -- -- -- -- -- -- --
2019-06-22 12:00:00 -- -- -- -- -- -- -- -- --
2019-06-22 11:00:00 -- -- -- -- -- -- -- -- --
2019-06-22 10:00:00 19.3 9 Oeste 16 Oeste 0 -- -- 54
2019-06-22 09:00:00 17.3 9 Oeste 14 Oeste 0 -- -- 61
2019-06-22 08:00:00 15.5 8 Oeste 12 Oeste 0 -- -- 67
2019-06-22 07:00:00 14 6 Sudoeste 14 Oeste 0 -- -- 71
2019-06-22 06:00:00 14.3 8 Oeste 22 Oeste 0 -- -- 69
2019-06-22 05:00:00 15.2 8 Oeste 27 Sudoeste 0 -- -- 65
2019-06-22 04:00:00 16.1 15 Sudoeste 27 Sudoeste 0 -- -- 61
2019-06-22 03:00:00 17 17 Sudoeste 30 Sudoeste 0 -- -- 59
2019-06-22 02:00:00 17.9 15 Oeste 27 Oeste 0 -- -- 58
2019-06-22 01:00:00 18.8 17 Sudoeste 24 Sudoeste 0 -- -- 57
2019-06-22 00:00:00 20 13 Oeste 26 Oeste 0 -- -- 55
2019-06-21 23:00:00 21.5 14 Oeste 24 Oeste 0 -- -- 52
2019-06-21 22:00:00 23.3 8 Sudoeste 14 Sudoeste 0 -- -- 54
2019-06-21 21:00:00 24.9 10 Sudoeste 15 Sudoeste 0 -- -- 51
2019-06-21 20:00:00 25.2 10 Oeste 16 Oeste 0 -- -- 50
2019-06-21 19:00:00 26.1 8 Oeste 23 Oeste 0 -- -- 48
2019-06-21 18:00:00 25.2 12 Oeste 22 Oeste 0 -- -- 51
2019-06-21 17:00:00 24.7 10 Oeste 23 Oeste 0 -- -- 53
2019-06-21 16:00:00 23.8 12 Oeste 26 Oeste 0 -- -- 56
2019-06-21 15:00:00 23.6 13 Oeste 21 Oeste 0 -- -- 56
2019-06-21 14:00:00 22.3 9 Oeste 21 Oeste 0 -- -- 59
2019-06-21 13:00:00 21.9 12 Oeste 26 Oeste 0 -- -- 63
2019-06-21 12:00:00 19.9 13 Oeste 24 Oeste 0 -- -- 73
2019-06-21 11:00:00 19.3 7 Sudoeste 13 Oeste 0 -- -- 71
2019-06-21 10:00:00 18.2 6 Oeste 16 Sudoeste 0 -- -- 76
2019-06-21 09:00:00 16.8 10 Oeste 20 Sudoeste 0 -- -- 81
2019-06-21 08:00:00 16.2 10 Sudoeste 17 Sudoeste 0 -- -- 84
2019-06-21 07:00:00 15.7 8 Sudoeste 15 Sudoeste 0 -- -- 85
2019-06-21 06:00:00 16.2 9 Oeste 16 Sudoeste 0 -- -- 82
2019-06-21 05:00:00 16.7 9 Sudoeste 14 Sudoeste 0 -- -- 81
2019-06-21 04:00:00 17 7 Sudoeste 18 Sudoeste 0 -- -- 80
2019-06-21 03:00:00 17.9 8 Sur 14 Sur 0 -- -- 76
2019-06-21 02:00:00 18.2 10 Sudeste 24 Sudeste 0 -- -- 76
2019-06-21 01:00:00 18.3 15 Sudeste 24 Sudeste 0 -- -- 76
2019-06-21 00:00:00 18.3 8 Este 24 Este 0 -- -- 76
2019-06-20 23:00:00 19 20 Este 33 Este 0 -- -- 72
2019-06-20 22:00:00 19.5 14 Este 21 Este 0 -- -- 69
2019-06-20 21:00:00 21.7 9 Este 36 Este 0 -- -- 59
2019-06-20 20:00:00 22.5 18 Este 34 Este 0 -- -- 55
2019-06-20 19:00:00 22.9 12 Este 42 Sudeste 0 -- -- 56
2019-06-20 18:00:00 24.8 23 Este 41 Este 0 -- -- 50
2019-06-20 17:00:00 25.2 20 Este 41 Este 0 -- -- 50
2019-06-20 16:00:00 25.6 16 Este 40 Este 0 -- -- 48
2019-06-20 15:00:00 28.3 18 Sudeste 41 Este 0 -- -- 44
2019-06-20 14:00:00 28.7 14 Este 33 Sudeste 0 -- -- 42
2019-06-20 13:00:00 27.8 13 Sur 23 Sur 0 -- -- 42
2019-06-20 12:00:00 25 7 Sudoeste 19 Sudoeste 0 -- -- 49
2019-06-20 11:00:00 23.1 9 Oeste 21 Oeste 0 -- -- 54
2019-06-20 10:00:00 21.4 12 Oeste 28 Sudoeste 0 -- -- 60
2019-06-20 09:00:00 20.1 17 Oeste 30 Oeste 0 -- -- 64
2019-06-20 08:00:00 18.9 12 Oeste 21 Sudoeste 0 -- -- 69
2019-06-20 07:00:00 17.8 11 Sudoeste 23 Sudoeste 0 -- -- 76
2019-06-20 06:00:00 18.5 13 Sudoeste 22 Sudoeste 0 -- -- 72
2019-06-20 05:00:00 18.4 10 Sur 15 Sur 0 -- -- 77
2019-06-20 04:00:00 19 5 Este 17 Sudeste 0 -- -- 73
2019-06-20 03:00:00 20.2 4 Este 18 Sudeste 0 -- -- 66
2019-06-20 02:00:00 20.4 7 Este 14 Este 0 -- -- 64
2019-06-20 01:00:00 -- -- -- -- -- -- -- -- --
2019-06-20 00:00:00 -- -- -- -- -- -- -- -- --
2019-06-19 23:00:00 -- -- -- -- -- -- -- -- --
2019-06-19 22:00:00 -- -- -- -- -- -- -- -- --
2019-06-19 21:00:00 -- -- -- -- -- -- -- -- --
2019-06-19 20:00:00 -- -- -- -- -- -- -- -- --
2019-06-19 19:00:00 -- -- -- -- -- -- -- -- --
2019-06-19 18:00:00 -- -- -- -- -- -- -- -- --
2019-06-19 17:00:00 -- -- -- -- -- -- -- -- --
2019-06-19 16:00:00 -- -- -- -- -- -- -- -- --
2019-06-19 15:00:00 -- -- -- -- -- -- -- -- --
2019-06-19 14:00:00 -- -- -- -- -- -- -- -- --
2019-06-19 13:00:00 -- -- -- -- -- -- -- -- --
2019-06-19 12:00:00 -- -- -- -- -- -- -- -- --
2019-06-19 11:00:00 -- -- -- -- -- -- -- -- --
2019-06-19 10:00:00 -- -- -- -- -- -- -- -- --
2019-06-19 09:00:00 -- -- -- -- -- -- -- -- --
2019-06-19 08:00:00 -- -- -- -- -- -- -- -- --
2019-06-19 07:00:00 -- -- -- -- -- -- -- -- --
2019-06-19 06:00:00 -- -- -- -- -- -- -- -- --
2019-06-19 05:00:00 -- -- -- -- -- -- -- -- --
2019-06-19 04:00:00 -- -- -- -- -- -- -- -- --
2019-06-19 03:00:00 -- -- -- -- -- -- -- -- --
2019-06-19 02:00:00 -- -- -- -- -- -- -- -- --
2019-06-19 01:00:00 -- -- -- -- -- -- -- -- --
2019-06-19 00:00:00 -- -- -- -- -- -- -- -- --
2019-06-18 23:00:00 -- -- -- -- -- -- -- -- --
2019-06-18 22:00:00 -- -- -- -- -- -- -- -- --
2019-06-18 21:00:00 -- -- -- -- -- -- -- -- --
2019-06-18 20:00:00 -- -- -- -- -- -- -- -- --
2019-06-18 19:00:00 -- -- -- -- -- -- -- -- --
2019-06-18 18:00:00 -- -- -- -- -- -- -- -- --
2019-06-18 17:00:00 -- -- -- -- -- -- -- -- --
2019-06-18 16:00:00 -- -- -- -- -- -- -- -- --
2019-06-18 15:00:00 -- -- -- -- -- -- -- -- --
2019-06-18 14:00:00 -- -- -- -- -- -- -- -- --
2019-06-18 13:00:00 -- -- -- -- -- -- -- -- --
2019-06-18 12:00:00 -- -- -- -- -- -- -- -- --
2019-06-18 11:00:00 -- -- -- -- -- -- -- -- --
2019-06-18 10:00:00 -- -- -- -- -- -- -- -- --
2019-06-18 09:00:00 -- -- -- -- -- -- -- -- --
2019-06-18 08:00:00 -- -- -- -- -- -- -- -- --
2019-06-18 07:00:00 18 12 Este 22 Este 0 -- -- 60
2019-06-18 06:00:00 18.7 12 Este 25 Este 0 -- -- 55
2019-06-18 05:00:00 19.1 10 Este 19 Este 0 -- -- 49
2019-06-18 04:00:00 20.4 9 Este 22 Este 0 -- -- 41
2019-06-18 03:00:00 20.9 13 Este 25 Este 0 -- -- 38
2019-06-18 02:00:00 20.9 11 Este 25 Este 0 -- -- 40
2019-06-18 01:00:00 20.9 12 Este 27 Este 0 -- -- 45
2019-06-18 00:00:00 21.3 15 Este 34 Sudeste 0 -- -- 43
2019-06-17 23:00:00 21.3 14 Este 31 Este 0 -- -- 47
2019-06-17 22:00:00 22.1 15 Este 29 Sudeste 0 -- -- 49
2019-06-17 21:00:00 23.6 14 Este 39 Sudeste 0 -- -- 48
2019-06-17 20:00:00 25.6 21 Sudeste 40 Sudeste 0 -- -- 47
2019-06-17 19:00:00 27 18 Sudeste 44 Sudeste 0 -- -- 46
2019-06-17 18:00:00 28.9 18 Sudeste 34 Sudeste 0 -- -- 45
2019-06-17 17:00:00 30 18 Sudeste 37 Sudeste 0 -- -- 41
2019-06-17 16:00:00 31.5 16 Sudeste 31 Este 0 -- -- 36
2019-06-17 15:00:00 30.7 11 Sudeste 29 Este 0 -- -- 32
2019-06-17 14:00:00 30.7 8 Nordeste 19 Nordeste 0 -- -- 34
2019-06-17 13:00:00 29 3 Sudoeste 13 Sur 0 -- -- 38
2019-06-17 12:00:00 27.4 6 Sudoeste 13 Sudeste 0 -- -- 43
2019-06-17 11:00:00 25 4 Sudoeste 12 Sudeste 0 -- -- 49
2019-06-17 10:00:00 22.9 4 Este 11 Nordeste 0 -- -- 57
2019-06-17 09:00:00 20.7 4 Este 10 Nordeste 0 -- -- 66
2019-06-17 08:00:00 18 5 Nordeste 9 Este 0 -- -- 75
2019-06-17 07:00:00 15.8 9 Este 12 Este 0 -- -- 77
2019-06-17 06:00:00 16.2 6 Este 13 Este 0 -- -- 71
2019-06-17 05:00:00 16.5 11 Este 14 Este 0 -- -- 69
2019-06-17 04:00:00 17.3 7 Nordeste 10 Este 0 -- -- 65
2019-06-17 03:00:00 18.2 7 Este 15 Este 0 -- -- 60
2019-06-17 02:00:00 18.8 9 Este 19 Este 0 -- -- 60
2019-06-17 01:00:00 19.2 11 Este 20 Este 0 -- -- 55
2019-06-17 00:00:00 19.8 10 Este 21 Este 0 -- -- 55
2019-06-16 23:00:00 20.1 11 Este 27 Este 0 -- -- 54
2019-06-16 22:00:00 20.7 12 Este 29 Este 0 -- -- 53
2019-06-16 21:00:00 21.5 12 Sudeste 31 Sudeste 0 -- -- 53
2019-06-16 20:00:00 22.9 15 Sudeste 35 Sudeste 0 -- -- 49
2019-06-16 19:00:00 24.5 17 Sudeste 33 Sudeste 0 -- -- 43
2019-06-16 18:00:00 25.5 13 Sudeste 31 Sudeste 0 -- -- 42
2019-06-16 17:00:00 26.9 17 Sudeste 35 Sudeste 0 -- -- 40
2019-06-16 16:00:00 28.3 15 Este 31 Sudeste 0 -- -- 38
2019-06-16 15:00:00 28.5 8 Sudeste 23 Sur 0 -- -- 34
2019-06-16 14:00:00 27.6 9 Sur 25 Sudeste 0 -- -- 36
2019-06-16 13:00:00 26.4 8 Este 20 Sudeste 0 -- -- 37
2019-06-16 12:00:00 24 4 Sudeste 13 Sur 0 -- -- 39
2019-06-16 11:00:00 21.2 6 Noroeste 15 Oeste 0 -- -- 43
2019-06-16 10:00:00 19.5 6 Sudoeste 14 Sudoeste 0 -- -- 49
2019-06-16 09:00:00 17.3 6 Sudoeste 12 Sudoeste 0 -- -- 56
2019-06-16 08:00:00 16 0 Calma 9 Sur 0 -- -- 61
2019-06-16 07:00:00 14.1 7 Sudoeste 13 Sudoeste 0 -- -- 66
2019-06-16 06:00:00 14.6 8 Sudoeste 14 Sudoeste 0 -- -- 65
2019-06-16 05:00:00 15.3 9 Sur 15 Sudeste 0 -- -- 89
2019-06-16 04:00:00 15.8 9 Sudeste 17 Sudeste 0 -- -- 89
2019-06-16 03:00:00 16.2 9 Sudeste 18 Sudeste 0 -- -- 87
2019-06-16 02:00:00 16.6 7 Este 18 Este 0 -- -- 84
2019-06-16 01:00:00 17.4 11 Este 24 Sudeste 0 -- -- 79
2019-06-16 00:00:00 18.3 9 Este 20 Este 0 -- -- 69
2019-06-15 23:00:00 20.2 7 Este 14 Este 0 -- -- 49
2019-06-15 22:00:00 23.8 4 Noroeste 15 Oeste 0 -- -- 27
2019-06-15 21:00:00 25.8 10 Oeste 23 Oeste 0 -- -- 25
2019-06-15 20:00:00 26.9 10 Oeste 25 Noroeste 0 -- -- 25
2019-06-15 19:00:00 26.9 10 Noroeste 30 Oeste 0 -- -- 24
2019-06-15 18:00:00 27.2 18 Oeste 33 Oeste 0 -- -- 25
2019-06-15 17:00:00 26.8 19 Oeste 32 Oeste 0 -- -- 24
2019-06-15 16:00:00 26.1 18 Oeste 34 Oeste 0 -- -- 26
2019-06-15 15:00:00 24.8 13 Noroeste 34 Noroeste 0 -- -- 30
2019-06-15 14:00:00 24.4 18 Oeste 30 Oeste 0 -- -- 32
2019-06-15 13:00:00 22.7 16 Oeste 31 Oeste 0 -- -- 41
2019-06-15 12:00:00 20.9 21 Oeste 36 Oeste 0 -- -- 47
2019-06-15 11:00:00 19.2 21 Oeste 39 Noroeste 0 -- -- 53
2019-06-15 10:00:00 17.9 20 Oeste 35 Oeste 0 -- -- 59
2019-06-15 09:00:00 16.3 18 Oeste 33 Oeste 0 -- -- 66
2019-06-15 08:00:00 14.8 15 Oeste 27 Oeste 0 -- -- 74
2019-06-15 07:00:00 13.7 12 Oeste 20 Oeste 0 -- -- 78
2019-06-15 06:00:00 14.2 15 Oeste 25 Oeste 0 -- -- 77
2019-06-15 05:00:00 14.9 18 Oeste 28 Oeste 0 -- -- 74
2019-06-15 04:00:00 16.6 13 Oeste 26 Sudoeste 0 -- -- 66
2019-06-15 03:00:00 19.2 17 Sudoeste 24 Oeste 0 -- -- 52
2019-06-15 02:00:00 19.2 15 Sur 26 Sur 0 -- -- 63
2019-06-15 01:00:00 19.6 15 Sudeste 23 Sudeste 0 -- -- 63
2019-06-15 00:00:00 19.4 9 Este 23 Este 0 -- -- 65
2019-06-14 23:00:00 19.7 15 Este 28 Este 0 -- -- 63
2019-06-14 22:00:00 21 11 Este 26 Este 0 -- -- 56
2019-06-14 21:00:00 23.3 13 Este 29 Sudeste 0 -- -- 49
2019-06-14 20:00:00 25.8 13 Sudeste 33 Sudeste 0 -- -- 44
2019-06-14 19:00:00 27.7 15 Sudeste 30 Este 0 -- -- 39
2019-06-14 18:00:00 28.8 5 Nordeste 15 Este 0 -- -- 33
2019-06-14 17:00:00 28 4 Nordeste 16 Noroeste 0 -- -- 35
2019-06-14 16:00:00 26.2 6 Noroeste 20 Oeste 0 -- -- 38
2019-06-14 15:00:00 24.3 10 Sudoeste 21 Oeste 0 -- -- 39
2019-06-14 14:00:00 22.5 7 Oeste 19 Oeste 0 -- -- 41
2019-06-14 13:00:00 21.8 10 Oeste 29 Oeste 0 -- -- 37
2019-06-14 12:00:00 21.8 12 Oeste 25 Oeste 0 -- -- 35
2019-06-14 11:00:00 19.4 4 Oeste 20 Norte 0 -- -- 39
2019-06-14 10:00:00 18.6 4 Noroeste 13 Oeste 0 -- -- 39
2019-06-14 09:00:00 16.5 10 Oeste 24 Oeste 0 -- -- 42
2019-06-14 08:00:00 14.8 13 Oeste 20 Sudoeste 0 -- -- 49
2019-06-14 07:00:00 14.7 7 Oeste 17 Sudoeste 0 -- -- 49
2019-06-14 06:00:00 15.5 5 Sudoeste 10 Sur 0 -- -- 47
2019-06-14 05:00:00 15.1 7 Sur 13 Sur 0 -- -- 48
2019-06-14 04:00:00 15.6 2 Sur 12 Este 0 -- -- 45
2019-06-14 03:00:00 15.7 5 Este 10 Nordeste 0 -- -- 43
2019-06-14 02:00:00 15.9 10 Nordeste 26 Este 0 -- -- 39
2019-06-14 01:00:00 16.6 14 Este 31 Este 0 -- -- 35
2019-06-14 00:00:00 16.8 14 Este 30 Este 0 -- -- 32
2019-06-13 23:00:00 17 16 Este 31 Este 0 -- -- 26
2019-06-13 22:00:00 17.3 18 Este 33 Este 0 -- -- 27
2019-06-13 21:00:00 18.3 17 Este 39 Este 0 -- -- 30
2019-06-13 20:00:00 19.5 23 Este 42 Este 0 -- -- 34
2019-06-13 19:00:00 21.3 17 Este 47 Este 0 -- -- 39
2019-06-13 18:00:00 21.9 20 Este 45 Este 0 -- -- 48
2019-06-13 17:00:00 19.5 20 Este 43 Este 0 -- -- 63
2019-06-13 16:00:00 22.2 16 Este 39 Sudeste 0 -- -- 57
2019-06-13 15:00:00 23.2 13 Este 39 Este 0 -- -- 54
2019-06-13 14:00:00 22.1 20 Este 39 Este 0 -- -- 58
2019-06-13 13:00:00 21.3 16 Este 35 Este 0 -- -- 61
2019-06-13 12:00:00 20.1 19 Este 39 Este 0 -- -- 64
2019-06-13 11:00:00 18.2 18 Este 39 Este 0 -- -- 69
2019-06-13 10:00:00 17.9 19 Este 36 Este 0 -- -- 72
2019-06-13 09:00:00 16.1 14 Este 28 Este 0 -- -- 81
2019-06-13 08:00:00 14.6 13 Este 27 Este 0 -- -- 85
2019-06-13 07:00:00 13.3 11 Este 21 Este 0 -- -- 89
2019-06-13 06:00:00 13.1 14 Este 26 Este 0 -- -- 89
2019-06-13 05:00:00 13.3 13 Este 30 Este 0 -- -- 84
2019-06-13 04:00:00 13.2 15 Este 31 Este 0 -- -- 82
2019-06-13 03:00:00 12.6 18 Este 24 Este 0 -- -- 81
2019-06-13 02:00:00 13.2 14 Este 22 Este 0 -- -- 71
2019-06-13 01:00:00 13.6 12 Este 28 Este 0 -- -- 68
2019-06-13 00:00:00 14.3 15 Este 28 Este 0 -- -- 66
2019-06-12 23:00:00 15.2 10 Este 33 Sudeste 0 -- -- 60
2019-06-12 22:00:00 16.5 14 Este 34 Sudeste 0 -- -- 50
2019-06-12 21:00:00 18.4 13 Este 36 Sudeste 0 -- -- 47
2019-06-12 20:00:00 20.3 15 Sudeste 37 Sudeste 0 -- -- 41
2019-06-12 19:00:00 21.5 18 Sudeste 36 Sudeste 0 -- -- 39
2019-06-12 18:00:00 22.7 16 Sudeste 31 Sudeste 0 -- -- 34
2019-06-12 17:00:00 23.9 8 Este 22 Sudoeste 0 -- -- 26
2019-06-12 16:00:00 22.6 7 Sudeste 26 Sudeste 0 -- -- 26
2019-06-12 15:00:00 21.8 8 Noroeste 27 Oeste 0 -- -- 29
2019-06-12 14:00:00 20.3 9 Norte 20 Oeste 0 -- -- 32
2019-06-12 13:00:00 18.8 10 Oeste 28 Noroeste 0 -- -- 35
2019-06-12 12:00:00 17.3 8 Noroeste 19 Oeste 0 -- -- 39
2019-06-12 11:00:00 16 9 Oeste 24 Oeste 0 -- -- 47
2019-06-12 10:00:00 14.1 12 Oeste 25 Oeste 0 -- -- 54
2019-06-12 09:00:00 12.8 12 Oeste 19 Oeste 0 -- -- 58
2019-06-12 08:00:00 11 9 Oeste 15 Sudoeste 0 -- -- 66
2019-06-12 07:00:00 9.2 9 Sudoeste 15 Oeste 0 -- -- 73
2019-06-12 06:00:00 9.3 12 Oeste 25 Oeste 0 -- -- 71
2019-06-12 05:00:00 9.4 13 Oeste 23 Oeste 0 -- -- 70
2019-06-12 04:00:00 10.2 11 Oeste 23 Sudoeste 0 -- -- 66
2019-06-12 03:00:00 10.7 14 Oeste 27 Oeste 0 -- -- 64
2019-06-12 02:00:00 11.1 15 Oeste 24 Sudoeste 0 -- -- 62
2019-06-12 01:00:00 11.7 11 Oeste 21 Oeste 0 -- -- 59
2019-06-12 00:00:00 12.8 14 Oeste 36 Oeste 0 -- -- 55
2019-06-11 23:00:00 14.1 20 Oeste 30 Oeste 0 -- -- 50
2019-06-11 22:00:00 15.4 25 Oeste 45 Oeste 0 -- -- 43
2019-06-11 21:00:00 17.4 27 Oeste 46 Oeste 0 -- -- 39
2019-06-11 20:00:00 18.5 30 Oeste 47 Oeste 0 -- -- 36
2019-06-11 19:00:00 18.5 21 Oeste 44 Oeste 0 -- -- 40
2019-06-11 18:00:00 16 15 Sudoeste 28 Sudoeste 0 -- -- 58
2019-06-11 17:00:00 13.4 18 Sudoeste 31 Sudoeste 0 -- -- 70
2019-06-11 16:00:00 13.4 17 Oeste 34 Oeste 0 -- -- 73
2019-06-11 15:00:00 14.3 22 Oeste 34 Oeste 0 -- -- 66
2019-06-11 14:00:00 12.6 18 Oeste 30 Oeste 0 -- -- 73
2019-06-11 13:00:00 11.7 19 Oeste 31 Oeste 0 -- -- 80
2019-06-11 12:00:00 11.2 16 Oeste 28 Oeste 0 -- -- 80
2019-06-11 11:00:00 11.2 18 Oeste 30 Oeste 0 -- -- 76
2019-06-11 10:00:00 11.3 19 Oeste 30 Oeste 0 -- -- 74
2019-06-11 09:00:00 11.3 18 Oeste 31 Oeste 0 -- -- 75
2019-06-11 08:00:00 11.4 14 Oeste 27 Oeste 0 -- -- 73
2019-06-11 07:00:00 11.4 17 Oeste 28 Oeste 0 -- -- 73
2019-06-11 06:00:00 11.9 18 Oeste 33 Oeste 0 -- -- 69
2019-06-11 05:00:00 13.3 19 Oeste 32 Oeste 0 -- -- 57
2019-06-11 04:00:00 13.7 14 Oeste 29 Oeste 0 -- -- 54
2019-06-11 03:00:00 15.1 12 Oeste 25 Sudoeste 0 -- -- 45
2019-06-11 02:00:00 15.1 17 Oeste 31 Oeste 0 -- -- 45
2019-06-11 01:00:00 15.7 22 Sudoeste 35 Sudoeste 0 -- -- 45
2019-06-11 00:00:00 16.1 19 Sudoeste 34 Oeste 0 -- -- 47
2019-06-10 23:00:00 17.4 16 Oeste 39 Oeste 0 -- -- 46
2019-06-10 22:00:00 18.5 24 Oeste 39 Oeste 0 -- -- 44
2019-06-10 21:00:00 20.5 20 Oeste 40 Oeste 0 -- -- 40
2019-06-10 20:00:00 21.6 29 Oeste 41 Oeste 0 -- -- 38
2019-06-10 19:00:00 23.7 25 Oeste 42 Oeste 0 -- -- 32
2019-06-10 18:00:00 25.2 19 Oeste 35 Noroeste 0 -- -- 26
2019-06-10 17:00:00 24.4 21 Oeste 37 Oeste 0 -- -- 32
2019-06-10 16:00:00 23.5 25 Oeste 41 Oeste 0 -- -- 37
2019-06-10 15:00:00 22.5 22 Oeste 42 Oeste 0 -- -- 40
2019-06-10 14:00:00 21.4 23 Oeste 44 Oeste 0 -- -- 42
2019-06-10 13:00:00 20.5 22 Oeste 45 Noroeste 0 -- -- 46
2019-06-10 12:00:00 19.5 25 Oeste 41 Oeste 0 -- -- 49
2019-06-10 11:00:00 17.7 23 Oeste 42 Sudoeste 0 -- -- 54
2019-06-10 10:00:00 16.3 28 Oeste 45 Oeste 0 -- -- 60
2019-06-10 09:00:00 14.2 21 Oeste 46 Sudoeste 0 -- -- 68
2019-06-10 08:00:00 13.9 24 Oeste 42 Sudoeste 0 -- -- 69
2019-06-10 07:00:00 13.3 20 Oeste 42 Sudoeste 0 -- -- 73
2019-06-10 06:00:00 13.7 24 Oeste 45 Oeste 0 -- -- 72
2019-06-10 05:00:00 14.2 24 Oeste 46 Sudoeste 0 -- -- 71
2019-06-10 04:00:00 14.8 21 Oeste 42 Oeste 0 -- -- 71
2019-06-10 03:00:00 15.4 24 Oeste 46 Sudoeste 0 -- -- 69
2019-06-10 02:00:00 16.6 21 Oeste 43 Oeste 0 -- -- 65
2019-06-10 01:00:00 18 24 Oeste 40 Sudoeste 0 -- -- 61
2019-06-10 00:00:00 19.5 6 Sudoeste 33 Oeste 0 -- -- 31
2019-06-09 23:00:00 20.6 11 Este 22 Sudeste 0 -- -- 28
2019-06-09 22:00:00 21.3 9 Este 21 Este 0 -- -- 26
2019-06-09 21:00:00 23.2 13 Este 28 Sudeste 0 -- -- 25
2019-06-09 20:00:00 24.6 13 Este 33 Sudeste 0 -- -- 23
2019-06-09 19:00:00 26.2 13 Sudeste 25 Este 0 -- -- 22
2019-06-09 18:00:00 26.4 13 Sudeste 29 Este 0 -- -- 24
2019-06-09 17:00:00 28.1 10 Nordeste 19 Este 0 -- -- 22
2019-06-09 16:00:00 27.7 7 Nordeste 16 Norte 0 -- -- 22
2019-06-09 15:00:00 25.8 8 Sudeste 17 Sudeste 0 -- -- 25
2019-06-09 14:00:00 25.2 8 Este 22 Este 0 -- -- 24
2019-06-09 13:00:00 24.3 6 Este 24 Este 0 -- -- 25
2019-06-09 12:00:00 23.5 10 Este 23 Sudeste 0 -- -- 24
2019-06-09 11:00:00 22.9 10 Este 23 Este 0 -- -- 24
2019-06-09 10:00:00 22.4 10 Este 19 Sudeste 0 -- -- 24
2019-06-09 09:00:00 19 5 Nordeste 14 Nordeste 0 -- -- 38
2019-06-09 08:00:00 15.6 8 Este 15 Este 0 -- -- 48
2019-06-09 07:00:00 15.3 5 Nordeste 11 Este 0 -- -- 50
2019-06-09 06:00:00 15.9 3 Norte 18 Este 0 -- -- 47
2019-06-09 05:00:00 15.8 17 Este 21 Este 0 -- -- 48
2019-06-09 04:00:00 16.6 10 Este 18 Este 0 -- -- 44
2019-06-09 03:00:00 16.3 11 Nordeste 21 Este 0 -- -- 46
2019-06-09 02:00:00 16.1 11 Este 28 Este 0 -- -- 48
2019-06-09 01:00:00 16.4 15 Este 23 Este 0 -- -- 49
2019-06-09 00:00:00 16.3 12 Este 23 Este 0 -- -- 48
2019-06-08 23:00:00 17.1 12 Este 26 Este 0 -- -- 49
2019-06-08 22:00:00 17.9 14 Este 29 Este 0 -- -- 46
2019-06-08 21:00:00 18.7 13 Este 28 Este 0 -- -- 44
2019-06-08 20:00:00 20.1 12 Este 33 Este 0 -- -- 43
2019-06-08 19:00:00 21.6 15 Este 41 Este 0 -- -- 37
2019-06-08 18:00:00 23.2 19 Este 40 Nordeste 0 -- -- 35
2019-06-08 17:00:00 23.9 17 Este 42 Sudeste 0 -- -- 37
2019-06-08 16:00:00 23.7 21 Sudeste 46 Sudeste 0 -- -- 39
2019-06-08 15:00:00 24.3 19 Sudeste 43 Sudeste 0 -- -- 38
2019-06-08 14:00:00 24.1 17 Sudeste 35 Sudeste 0 -- -- 38
2019-06-08 13:00:00 23.9 10 Sudeste 30 Nordeste 0 -- -- 41
2019-06-08 12:00:00 22 14 Sudeste 25 Sudeste 0 -- -- 47
2019-06-08 11:00:00 18.7 4 Noroeste 13 Oeste 0 -- -- 49
2019-06-08 10:00:00 16.5 6 Oeste 15 Oeste 0 -- -- 51
2019-06-08 09:00:00 14.8 8 Oeste 16 Sudoeste 0 -- -- 54
2019-06-08 08:00:00 12.8 12 Sudoeste 18 Oeste 0 -- -- 62
2019-06-08 07:00:00 12.1 12 Sudoeste 17 Sudoeste 0 -- -- 63
2019-06-08 06:00:00 12.7 10 Sudoeste 16 Sudoeste 0 -- -- 58
2019-06-08 05:00:00 13.9 6 Sudoeste 17 Sur 0 -- -- 52
2019-06-08 04:00:00 15.1 8 Sudeste 17 Sudeste 0 -- -- 68
2019-06-08 03:00:00 15.6 9 Este 16 Nordeste 0 -- -- 40
2019-06-08 02:00:00 17.8 0 Calma 6 Sudeste 0 -- -- 34
2019-06-08 01:00:00 17.8 5 Sudeste 7 Sudeste 0 -- -- 35
2019-06-08 00:00:00 18.6 3 Este 9 Norte 0 -- -- 33
2019-06-07 23:00:00 20 6 Norte 13 Norte 0 -- -- 30
2019-06-07 22:00:00 20.5 5 Norte 18 Oeste 0 -- -- 29
2019-06-07 21:00:00 22.4 12 Oeste 27 Oeste 0 -- -- 24
2019-06-07 20:00:00 23.5 13 Noroeste 30 Noroeste 0 -- -- 23
2019-06-07 19:00:00 24.2 18 Noroeste 35 Oeste 0 -- -- 21
2019-06-07 18:00:00 24.2 18 Oeste 42 Oeste 0 -- -- 21
2019-06-07 17:00:00 24.3 23 Oeste 43 Oeste 0 -- -- 24
2019-06-07 16:00:00 23.9 22 Oeste 42 Oeste 0 -- -- 24
2019-06-07 15:00:00 23.4 24 Oeste 44 Noroeste 0 -- -- 24
2019-06-07 14:00:00 21.6 23 Oeste 44 Sudoeste 0 -- -- 37
2019-06-07 13:00:00 20.4 18 Oeste 33 Oeste 0 -- -- 43
2019-06-07 12:00:00 19 23 Oeste 42 Oeste 0 -- -- 48
2019-06-07 11:00:00 17.6 29 Oeste 46 Oeste 0 -- -- 51
2019-06-07 10:00:00 17.7 31 Oeste 49 Oeste 0 -- -- 57
2019-06-07 09:00:00 18.7 15 Sur 23 Sudeste 0 -- -- 71
2019-06-07 08:00:00 17.5 8 Este 17 Sudeste 0 -- -- 80
2019-06-07 07:00:00 15.5 6 Este 22 Este 0 -- -- 88
2019-06-07 06:00:00 15.7 12 Este 26 Este 0 -- -- 88
2019-06-07 05:00:00 15.8 10 Este 27 Sudeste 0 -- -- 86
2019-06-07 04:00:00 16.1 12 Este 31 Sudeste 0 -- -- 85
2019-06-07 03:00:00 16.5 13 Este 35 Este 0 -- -- 84
2019-06-07 02:00:00 16.7 12 Este 35 Este 0 -- -- 84
2019-06-07 01:00:00 16.8 14 Este 48 Sudeste 0 -- -- 80
2019-06-07 00:00:00 17 18 Sudeste 45 Este 0 -- -- 80
2019-06-06 23:00:00 17.2 17 Este 42 Sudeste 0 -- -- 78
2019-06-06 22:00:00 17.4 19 Este 48 Este 0 -- -- 73
2019-06-06 21:00:00 18.4 21 Este 53 Sudeste 0 -- -- 66
2019-06-06 20:00:00 19.7 23 Sudeste 58 Sur 0 -- -- 55
2019-06-06 19:00:00 20.9 29 Sudeste 54 Sur 0 -- -- 50
2019-06-06 18:00:00 22 24 Sudeste 53 Sudeste 0 -- -- 46
2019-06-06 17:00:00 22.7 22 Este 53 Sudeste 0 -- -- 42
2019-06-06 16:00:00 21.7 24 Sudeste 49 Sudeste 0 -- -- 44
2019-06-06 15:00:00 22.7 22 Sudeste 51 Sudeste 0 -- -- 42
2019-06-06 14:00:00 23.6 21 Este 43 Este 0 -- -- 42
2019-06-06 13:00:00 23.4 16 Sudeste 33 Sudeste 0 -- -- 40
2019-06-06 12:00:00 21.9 13 Este 25 Sudeste 0 -- -- 41
2019-06-06 11:00:00 20.3 9 Este 20 Este 0 -- -- 45
2019-06-06 10:00:00 17.2 6 Nordeste 14 Nordeste 0 -- -- 50
2019-06-06 09:00:00 14.9 3 Noroeste 10 Este 0 -- -- 60
2019-06-06 08:00:00 12.7 6 Oeste 14 Oeste 0 -- -- 68
2019-06-06 07:00:00 11.5 8 Oeste 12 Oeste 0 -- -- 71
2019-06-06 06:00:00 11.6 5 Sur 14 Sudoeste 0 -- -- 70
2019-06-06 05:00:00 12.4 10 Oeste 19 Sudoeste 0 -- -- 66
2019-06-06 04:00:00 13.4 14 Sudoeste 22 Sudoeste 0 -- -- 63
2019-06-06 03:00:00 13.3 10 Sudoeste 19 Oeste 0 -- -- 64
2019-06-06 02:00:00 13.4 10 Sudoeste 21 Sudoeste 0 -- -- 64
2019-06-06 01:00:00 13.8 14 Sudoeste 21 Sudoeste 0 -- -- 62
2019-06-06 00:00:00 14.6 8 Oeste 24 Oeste 0 -- -- 58
2019-06-05 23:00:00 15.8 15 Oeste 27 Oeste 0 -- -- 53
2019-06-05 22:00:00 16.9 15 Oeste 43 Oeste 0 -- -- 49
2019-06-05 21:00:00 18.5 33 Oeste 54 Oeste 0 -- -- 44
2019-06-05 20:00:00 19.4 32 Oeste 55 Oeste 0 -- -- 44
2019-06-05 19:00:00 19.4 33 Oeste 52 Oeste 0 -- -- 43
2019-06-05 18:00:00 19.4 33 Oeste 57 Oeste 0 -- -- 45
2019-06-05 17:00:00 19.2 32 Oeste 56 Oeste 0 -- -- 44
2019-06-05 16:00:00 18.9 36 Oeste 57 Oeste 0 -- -- 48
2019-06-05 15:00:00 17.8 32 Oeste 63 Oeste 0 -- -- 55
2019-06-05 14:00:00 16.9 34 Oeste 51 Oeste 0 -- -- 64
2019-06-05 13:00:00 18.7 23 Oeste 40 Oeste 0 -- -- 60
2019-06-05 12:00:00 17.7 24 Oeste 34 Oeste 0 -- -- 63
2019-06-05 11:00:00 16.8 13 Oeste 23 Oeste 0 -- -- 65
2019-06-05 10:00:00 15.4 13 Oeste 22 Oeste 0 -- -- 68
2019-06-05 09:00:00 14.6 5 Oeste 15 Oeste 0 -- -- 73
2019-06-05 08:00:00 14.5 10 Oeste 15 Oeste 0 -- -- 74
2019-06-05 07:00:00 14.8 8 Oeste 15 Oeste 0 -- -- 76
2019-06-05 06:00:00 15.1 4 Oeste 12 Sudoeste 0 -- -- 77
2019-06-05 05:00:00 15.8 9 Sudoeste 15 Sur 0 -- -- 79
2019-06-05 04:00:00 16.1 10 Sudeste 18 Sudeste 0 -- -- 86
2019-06-05 03:00:00 16.7 14 Sudeste 26 Sudeste 0 -- -- 80
2019-06-05 02:00:00 16.7 9 Este 27 Este 0 -- -- 77
2019-06-05 01:00:00 17.7 6 Este 37 Este 0 -- -- 67
2019-06-05 00:00:00 18 17 Este 36 Este 0 -- -- 67
2019-06-04 23:00:00 18 19 Este 45 Este 0 -- -- 71
2019-06-04 22:00:00 18.3 18 Este 41 Sudeste 0 -- -- 74
2019-06-04 21:00:00 19.2 20 Este 44 Este 0 -- -- 72
2019-06-04 20:00:00 21.2 22 Este 45 Este 0 -- -- 65
2019-06-04 19:00:00 23.5 19 Este 43 Este 0 -- -- 61
2019-06-04 18:00:00 24.1 28 Este 48 Este 0 -- -- 60
2019-06-04 17:00:00 25 30 Este 47 Este 0 -- -- 57
2019-06-04 16:00:00 25.9 21 Este 46 Este 0 -- -- 54
2019-06-04 15:00:00 27.2 23 Este 41 Este 0 -- -- 51
2019-06-04 14:00:00 27.1 22 Este 37 Este 0 -- -- 51
2019-06-04 13:00:00 26.8 20 Este 35 Este 0 -- -- 49
2019-06-04 12:00:00 25.1 17 Este 35 Este 0 -- -- 52
2019-06-04 11:00:00 23.1 14 Este 29 Sudeste 0 -- -- 58
2019-06-04 10:00:00 21.3 14 Este 30 Este 0 -- -- 62
2019-06-04 09:00:00 19.6 14 Este 32 Este 0 -- -- 67
2019-06-04 08:00:00 17.8 15 Este 35 Sudeste 0 -- -- 73
2019-06-04 07:00:00 16.6 18 Este 40 Este 0 -- -- 73
2019-06-04 06:00:00 17.1 16 Este 32 Este 0 -- -- 60
2019-06-04 05:00:00 17.5 15 Este 36 Este 0 -- -- 55
2019-06-04 04:00:00 18.4 15 Este 35 Este 0 -- -- 45
2019-06-04 03:00:00 18.8 14 Este 31 Este 0 -- -- 42
2019-06-04 02:00:00 18.6 14 Este 37 Este 0 -- -- 46
2019-06-04 01:00:00 18.9 18 Este 37 Este 0 -- -- 50
2019-06-04 00:00:00 19.1 19 Este 40 Este 0 -- -- 52
2019-06-03 23:00:00 19.6 18 Este 40 Este 0 -- -- 49
2019-06-03 22:00:00 19.8 19 Este 36 Este 0 -- -- 53
2019-06-03 21:00:00 21 19 Este 40 Este 0 -- -- 53
2019-06-03 20:00:00 22.8 18 Este 42 Este 0 -- -- 41
2019-06-03 19:00:00 24.6 21 Este 40 Nordeste 0 -- -- 44
2019-06-03 18:00:00 25.6 18 Este 48 Sudeste 0 -- -- 38
2019-06-03 17:00:00 25.7 23 Sudeste 49 Sudeste 0 -- -- 41
2019-06-03 16:00:00 27.5 21 Este 46 Sudeste 0 -- -- 37
2019-06-03 15:00:00 28 18 Este 36 Sudeste 0 -- -- 40
2019-06-03 14:00:00 27.4 16 Este 36 Este 0 -- -- 42
2019-06-03 13:00:00 27.6 13 Este 31 Este 0 -- -- 38
2019-06-03 12:00:00 27 14 Este 28 Este 0 -- -- 33
2019-06-03 11:00:00 24.9 14 Este 30 Este 0 -- -- 33
2019-06-03 10:00:00 23.7 12 Este 26 Este 0 -- -- 33
2019-06-03 09:00:00 22.7 12 Este 23 Este 0 -- -- 35
2019-06-03 08:00:00 20.3 12 Este 22 Este 0 -- -- 39
2019-06-03 07:00:00 18.2 12 Este 22 Este 0 -- -- 43
2019-06-03 06:00:00 18 11 Este 26 Este 0 -- -- 42
2019-06-03 05:00:00 17.6 11 Este 22 Nordeste 0 -- -- 44
2019-06-03 04:00:00 18.2 10 Este 27 Este 0 -- -- 44
2019-06-03 03:00:00 18.5 14 Este 33 Este 0 -- -- 44
2019-06-03 02:00:00 19 15 Este 33 Este 0 -- -- 44
2019-06-03 01:00:00 19.1 14 Este 33 Nordeste 0 -- -- 47
2019-06-03 00:00:00 19.1 15 Este 35 Este 0 -- -- 49
2019-06-02 23:00:00 19.3 19 Este 34 Este 0 -- -- 52
2019-06-02 22:00:00 20.2 19 Este 37 Este 0 -- -- 48
2019-06-02 21:00:00 22.1 14 Este 36 Este 0 -- -- 40
2019-06-02 20:00:00 24.5 15 Este 39 Sudeste 0 -- -- 33
2019-06-02 19:00:00 26.3 20 Sudeste 40 Sudeste 0 -- -- 31
2019-06-02 18:00:00 28.1 15 Este 46 Este 0 -- -- 30
2019-06-02 17:00:00 28.8 19 Este 36 Este 0 -- -- 29
2019-06-02 16:00:00 29.1 17 Sudeste 35 Sudeste 0 -- -- 32
2019-06-02 15:00:00 29.2 17 Sudeste 33 Sudeste 0 -- -- 31
2019-06-02 14:00:00 28.8 15 Sudeste 31 Sudeste 0 -- -- 31
2019-06-02 13:00:00 28 14 Sudeste 25 Sudeste 0 -- -- 31
2019-06-02 12:00:00 26.6 11 Sudeste 23 Sudeste 0 -- -- 31
2019-06-02 11:00:00 25.7 6 Este 14 Norte 0 -- -- 38
2019-06-02 10:00:00 22.9 7 Sudeste 15 Sudeste 0 -- -- 41
2019-06-02 09:00:00 21 6 Sudeste 12 Este 0 -- -- 45
2019-06-02 08:00:00 18.5 6 Este 15 Este 0 -- -- 48
2019-06-02 07:00:00 15.7 10 Este 13 Este 0 -- -- 54
2019-06-02 06:00:00 15.8 10 Este 15 Nordeste 0 -- -- 50
2019-06-02 05:00:00 17.1 13 Este 20 Este 0 -- -- 43
2019-06-02 04:00:00 17.4 12 Este 19 Este 0 -- -- 42
2019-06-02 03:00:00 17.1 13 Este 23 Este 0 -- -- 46
2019-06-02 02:00:00 18.3 12 Este 24 Este 0 -- -- 42
2019-06-02 01:00:00 18.9 11 Este 28 Este 0 -- -- 39
2019-06-02 00:00:00 19.6 14 Este 31 Este 0 -- -- 38
2019-06-01 23:00:00 20.2 13 Este 23 Este 0 -- -- 39
2019-06-01 22:00:00 21.1 12 Este 22 Este 0 -- -- 39
2019-06-01 21:00:00 23.3 11 Este 35 Este 0 -- -- 36
2019-06-01 20:00:00 24.8 16 Sudeste 43 Sudeste 0 -- -- 35
2019-06-01 19:00:00 26.4 15 Este 36 Sudeste 0 -- -- 34
2019-06-01 18:00:00 27.4 18 Este 34 Sudeste 0 -- -- 34
2019-06-01 17:00:00 28.4 15 Este 32 Sudeste 0 -- -- 34
2019-06-01 16:00:00 28.7 14 Sudeste 33 Este 0 -- -- 34
2019-06-01 15:00:00 29.4 12 Sudeste 32 Sudeste 0 -- -- 35
2019-06-01 14:00:00 28.4 19 Este 35 Este 0 -- -- 33
2019-06-01 13:00:00 27.7 11 Sudeste 23 Sudeste 0 -- -- 33
2019-06-01 12:00:00 26.7 9 Este 25 Este 0 -- -- 38
2019-06-01 11:00:00 24.9 5 Nordeste 11 Nordeste 0 -- -- 41
2019-06-01 10:00:00 22.5 6 Sudeste 11 Sur 0 -- -- 47
2019-06-01 09:00:00 19.7 0 Calma 5 Oeste 0 -- -- 55
2019-06-01 08:00:00 18 0 Calma 5 Este 0 -- -- 59
2019-06-01 07:00:00 15.4 4 Nordeste 12 Este 0 -- -- 65
2019-06-01 06:00:00 15 11 Este 13 Este 0 -- -- 67
2019-06-01 05:00:00 15.4 6 Nordeste 17 Este 0 -- -- 66
2019-06-01 04:00:00 15.6 14 Este 20 Este 0 -- -- 66
2019-06-01 03:00:00 15.9 13 Este 18 Este 0 -- -- 64
2019-06-01 02:00:00 16.4 10 Este 21 Este 0 -- -- 62
2019-06-01 01:00:00 17 13 Este 17 Este 0 -- -- 61
2019-06-01 00:00:00 18.3 9 Este 22 Este 0 -- -- 56
2019-05-31 23:00:00 18.7 13 Este 25 Sudeste 0 -- -- 54
2019-05-31 22:00:00 19.4 13 Este 31 Nordeste 0 -- -- 53
2019-05-31 21:00:00 21.3 12 Este 32 Este 0 -- -- 48
2019-05-31 20:00:00 23.3 14 Este 33 Este 0 -- -- 46
2019-05-31 19:00:00 24.9 15 Este 41 Sudeste 0 -- -- 43
2019-05-31 18:00:00 26.1 13 Este 33 Este 0 -- -- 40
2019-05-31 17:00:00 26.4 16 Este 32 Este 0 -- -- 39
2019-05-31 16:00:00 27.3 14 Este 30 Sudeste 0 -- -- 38
2019-05-31 15:00:00 27.6 12 Este 31 Este 0 -- -- 39
2019-05-31 14:00:00 26.8 7 Sur 23 Sudeste 0 -- -- 39
2019-05-31 13:00:00 25.9 6 Este 26 Sudeste 0 -- -- 39
2019-05-31 12:00:00 24.4 8 Sudeste 19 Sur 0 -- -- 43
2019-05-31 11:00:00 22.3 3 Sudoeste 14 Este 0 -- -- 50
2019-05-31 10:00:00 20.7 2 Noroeste 9 Sur 0 -- -- 57
2019-05-31 09:00:00 18.4 6 Sudeste 12 Sudeste 0 -- -- 66
2019-05-31 08:00:00 15.9 6 Sudeste 12 Sudeste 0 -- -- 78
2019-05-31 07:00:00 14.3 8 Sudeste 15 Sudeste 0 -- -- 82
2019-05-31 06:00:00 14.4 11 Sudeste 19 Sudeste 0 -- -- 80
2019-05-31 05:00:00 14.7 9 Este 17 Sudeste 0 -- -- 77
2019-05-31 04:00:00 15.1 6 Este 13 Este 0 -- -- 72
2019-05-31 03:00:00 15.9 11 Este 23 Este 0 -- -- 68
2019-05-31 02:00:00 16.1 14 Este 26 Este 0 -- -- 67
2019-05-31 01:00:00 16.8 14 Este 28 Este 0 -- -- 62
2019-05-31 00:00:00 17.1 12 Este 24 Este 0 -- -- 60
2019-05-30 23:00:00 17.4 11 Este 21 Este 0 -- -- 59
2019-05-30 22:00:00 18.7 11 Este 23 Sudeste 0 -- -- 53
2019-05-30 21:00:00 21.6 12 Este 31 Sudeste 0 -- -- 45
2019-05-30 20:00:00 23.6 12 Este 26 Sudeste 0 -- -- 42
2019-05-30 19:00:00 26 12 Sudeste 24 Sudeste 0 -- -- 39
2019-05-30 18:00:00 28 3 Oeste 13 Este 0 -- -- 27
2019-05-30 17:00:00 27 5 Nordeste 19 Oeste 0 -- -- 28
2019-05-30 16:00:00 25.8 8 Noroeste 19 Noroeste 0 -- -- 31
2019-05-30 15:00:00 24.6 10 Noroeste 21 Sudoeste 0 -- -- 33
2019-05-30 14:00:00 23.4 8 Sudoeste 24 Oeste 0 -- -- 37
2019-05-30 13:00:00 21.9 9 Oeste 25 Oeste 0 -- -- 40
2019-05-30 12:00:00 20.5 13 Oeste 24 Oeste 0 -- -- 44
2019-05-30 11:00:00 18.8 13 Oeste 23 Oeste 0 -- -- 49
2019-05-30 10:00:00 16.7 13 Oeste 26 Oeste 0 -- -- 55
2019-05-30 09:00:00 14.9 15 Oeste 27 Sudoeste 0 -- -- 61
2019-05-30 08:00:00 13.1 10 Sudoeste 20 Sudoeste 0 -- -- 67
2019-05-30 07:00:00 11.7 13 Sudoeste 21 Sudoeste 0 -- -- 71
2019-05-30 06:00:00 12.1 13 Sudoeste 23 Sudoeste 0 -- -- 67
2019-05-30 05:00:00 12.4 14 Sudoeste 23 Oeste 0 -- -- 65
2019-05-30 04:00:00 12.8 15 Sudoeste 24 Sudoeste 0 -- -- 64
2019-05-30 03:00:00 13.6 13 Sudoeste 25 Sudoeste 0 -- -- 61
2019-05-30 02:00:00 14.3 16 Sudoeste 27 Oeste 0 -- -- 58
2019-05-30 01:00:00 15 18 Sudoeste 34 Sudoeste 0 -- -- 56
2019-05-30 00:00:00 15.8 18 Sudoeste 36 Sudoeste 0 -- -- 54
2019-05-29 23:00:00 16.7 22 Sudoeste 35 Oeste 0 -- -- 51
2019-05-29 22:00:00 17.8 17 Oeste 35 Sudoeste 0 -- -- 48
2019-05-29 21:00:00 19.7 22 Oeste 40 Oeste 0 -- -- 43
2019-05-29 20:00:00 21.3 28 Oeste 46 Sudoeste 0 -- -- 38
2019-05-29 19:00:00 22.3 27 Oeste 44 Oeste 0 -- -- 34
2019-05-29 18:00:00 22.6 28 Oeste 45 Oeste 0 -- -- 33
2019-05-29 17:00:00 22.7 23 Oeste 46 Oeste 0 -- -- 33
2019-05-29 16:00:00 22 24 Oeste 40 Oeste 0 -- -- 35
2019-05-29 15:00:00 21.6 23 Oeste 44 Sudoeste 0 -- -- 39
2019-05-29 14:00:00 20.4 24 Oeste 36 Oeste 0 -- -- 36
2019-05-29 13:00:00 19.5 21 Oeste 40 Oeste 0 -- -- 39
2019-05-29 12:00:00 17.3 18 Oeste 32 Oeste 0 -- -- 48
2019-05-29 11:00:00 15.7 19 Oeste 32 Oeste 0 -- -- 54
2019-05-29 10:00:00 14 21 Oeste 36 Oeste 0 -- -- 60
2019-05-29 09:00:00 12.7 21 Oeste 37 Oeste 0 -- -- 66
2019-05-29 08:00:00 11.3 20 Oeste 34 Oeste 0 -- -- 72
2019-05-29 07:00:00 10 19 Oeste 35 Oeste 0 -- -- 75
2019-05-29 06:00:00 10.1 19 Oeste 32 Oeste 0 -- -- 74
2019-05-29 05:00:00 10.4 18 Oeste 33 Oeste 0 -- -- 73
2019-05-29 04:00:00 10.9 21 Oeste 40 Oeste 0 -- -- 69
2019-05-29 03:00:00 11.5 23 Oeste 50 Oeste 0 -- -- 66
2019-05-29 02:00:00 11.9 31 Oeste 45 Oeste 0 -- -- 64
2019-05-29 01:00:00 12.5 23 Oeste 41 Sudoeste 0 -- -- 61
2019-05-29 00:00:00 13.2 25 Oeste 45 Oeste 0 -- -- 56
2019-05-28 23:00:00 14 27 Oeste 49 Oeste 0 -- -- 52
2019-05-28 22:00:00 15 24 Oeste 52 Oeste 0 -- -- 48
2019-05-28 21:00:00 16.3 30 Oeste 61 Oeste 0 -- -- 44
2019-05-28 20:00:00 18.1 36 Oeste 71 Oeste 0 -- -- 42
2019-05-28 19:00:00 18.8 48 Oeste 73 Oeste 0 -- -- 43
2019-05-28 18:00:00 20.3 46 Oeste 72 Oeste 0 -- -- 39
2019-05-28 17:00:00 20.3 38 Oeste 59 Oeste 0 -- -- 40
2019-05-28 16:00:00 19.7 44 Oeste 67 Oeste 0 -- -- 44
2019-05-28 15:00:00 20.3 37 Oeste 63 Oeste 0 -- -- 42
2019-05-28 14:00:00 19.2 32 Oeste 55 Oeste 0 -- -- 45
2019-05-28 13:00:00 18.1 30 Oeste 50 Oeste 0 -- -- 48
2019-05-28 12:00:00 16.7 33 Oeste 50 Oeste 0 -- -- 52
2019-05-28 11:00:00 15.2 32 Oeste 52 Oeste 0 -- -- 56
2019-05-28 10:00:00 14 28 Oeste 51 Oeste 0 -- -- 58
2019-05-28 09:00:00 13 27 Oeste 49 Oeste 0 -- -- 62
2019-05-28 08:00:00 12 25 Oeste 48 Oeste 0 -- -- 65
2019-05-28 07:00:00 11.3 26 Oeste 48 Sudoeste 0 -- -- 66
2019-05-28 06:00:00 11.5 23 Oeste 42 Oeste 0 -- -- 67
2019-05-28 05:00:00 12.2 33 Oeste 62 Oeste 0 -- -- 66
2019-05-28 04:00:00 12.7 26 Oeste 42 Oeste 0 -- -- 66
2019-05-28 03:00:00 13.4 23 Oeste 45 Oeste 0 -- -- 64
2019-05-28 02:00:00 14 31 Oeste 52 Sudoeste 0 -- -- 59
2019-05-28 01:00:00 15.1 29 Oeste 49 Oeste 0 -- -- 59
2019-05-28 00:00:00 16.5 26 Oeste 46 Oeste 0 -- -- 64
2019-05-27 23:00:00 17.7 28 Oeste 44 Oeste 0 -- -- 62
2019-05-27 22:00:00 19 24 Oeste 42 Oeste 0 -- -- 59
2019-05-27 21:00:00 20.7 27 Oeste 47 Oeste 0 -- -- 53
2019-05-27 20:00:00 23 31 Oeste 49 Oeste 0 -- -- 47
2019-05-27 19:00:00 24.3 30 Oeste 45 Oeste 0 -- -- 45
2019-05-27 18:00:00 24.3 20 Oeste 36 Sudoeste 0 -- -- 47
2019-05-27 17:00:00 23.4 21 Oeste 37 Oeste 0 -- -- 47
2019-05-27 16:00:00 22.8 20 Oeste 36 Oeste 0 -- -- 46
2019-05-27 15:00:00 21.8 21 Oeste 36 Oeste 0 -- -- 50
2019-05-27 14:00:00 20.6 21 Oeste 38 Oeste 0 -- -- 52
2019-05-27 13:00:00 19.2 24 Oeste 41 Sudoeste 0 -- -- 56
2019-05-27 12:00:00 17.2 22 Oeste 43 Oeste 0 -- -- 61
2019-05-27 11:00:00 16.4 27 Oeste 42 Oeste 0 -- -- 64
2019-05-27 10:00:00 15 23 Oeste 39 Oeste 0 -- -- 69
2019-05-27 09:00:00 13.6 26 Oeste 40 Oeste 0 -- -- 74
2019-05-27 08:00:00 12.7 17 Oeste 32 Sudoeste 0 -- -- 78
2019-05-27 07:00:00 11.6 15 Oeste 26 Sudoeste 0 -- -- 83
2019-05-27 06:00:00 11.9 18 Oeste 30 Sudoeste 0 -- -- 81
2019-05-27 05:00:00 12.4 18 Oeste 32 Sudoeste 0 -- -- 79
2019-05-27 04:00:00 12.9 21 Sudoeste 33 Sudoeste 0 -- -- 78
2019-05-27 03:00:00 13.3 20 Sudoeste 37 Oeste 0 -- -- 74
2019-05-27 02:00:00 13.8 24 Sudoeste 38 Sudoeste 0 -- -- 72
2019-05-27 01:00:00 14.4 23 Sudoeste 40 Oeste 0 -- -- 70
2019-05-27 00:00:00 15.2 25 Sudoeste 40 Sudoeste 0 -- -- 68
2019-05-26 23:00:00 16.5 25 Oeste 40 Sudoeste 0 -- -- 63
2019-05-26 22:00:00 17.3 19 Sudoeste 33 Oeste 0 -- -- 60
2019-05-26 21:00:00 19.6 26 Oeste 37 Oeste 0 -- -- 53
2019-05-26 20:00:00 21.4 24 Oeste 40 Oeste 0 -- -- 48
2019-05-26 19:00:00 22.3 26 Oeste 42 Oeste 0 -- -- 44
2019-05-26 18:00:00 22.9 21 Oeste 35 Oeste 0 -- -- 42
2019-05-26 17:00:00 22.5 21 Oeste 45 Oeste 0 -- -- 44
2019-05-26 16:00:00 22.3 21 Oeste 35 Oeste 0 -- -- 45
2019-05-26 15:00:00 20.9 21 Oeste 37 Oeste 0 -- -- 46
2019-05-26 14:00:00 19.8 19 Oeste 36 Oeste 0 -- -- 50
2019-05-26 13:00:00 18.4 24 Oeste 37 Oeste 0 -- -- 55
2019-05-26 12:00:00 17 22 Oeste 40 Oeste 0 -- -- 60
2019-05-26 11:00:00 15.6 21 Oeste 39 Oeste 0 -- -- 64
2019-05-26 10:00:00 14.1 25 Oeste 41 Oeste 0 -- -- 68
2019-05-26 09:00:00 12.8 22 Oeste 39 Sudoeste 0 -- -- 71
2019-05-26 08:00:00 11.6 22 Sudoeste 40 Sudoeste 0 -- -- 74
2019-05-26 07:00:00 10.5 20 Sudoeste 36 Sudoeste 0 -- -- 78
2019-05-26 06:00:00 10.8 23 Sudoeste 36 Sudoeste 0 -- -- 78
2019-05-26 05:00:00 11.1 21 Sudoeste 37 Sudoeste 0 -- -- 79
2019-05-26 04:00:00 11.5 23 Oeste 41 Sudoeste 0 -- -- 79
2019-05-26 03:00:00 11.8 22 Sudoeste 38 Oeste 0 -- -- 78
2019-05-26 02:00:00 12.4 27 Sudoeste 42 Sudoeste 0 -- -- 76
2019-05-26 01:00:00 13 27 Sudoeste 44 Sudoeste 0 -- -- 75
2019-05-26 00:00:00 13.8 26 Oeste 45 Sudoeste 0 -- -- 74
2019-05-25 23:00:00 14.9 27 Oeste 47 Sudoeste 0 -- -- 73
2019-05-25 22:00:00 15.6 19 Oeste 38 Oeste 0 -- -- 74
2019-05-25 21:00:00 16 18 Sudoeste 27 Sudoeste 0.4 -- -- 83
2019-05-25 20:00:00 15.9 11 Oeste 37 Oeste 1.8 -- -- 84
2019-05-25 19:00:00 20.6 22 Oeste 42 Oeste 0 -- -- 52
2019-05-25 18:00:00 22 25 Oeste 38 Oeste 0 -- -- 50
2019-05-25 17:00:00 21 27 Oeste 45 Oeste 0 -- -- 52
2019-05-25 16:00:00 20.9 23 Oeste 38 Oeste 0 -- -- 53
2019-05-25 15:00:00 21 20 Oeste 44 Oeste 0 -- -- 57
2019-05-25 14:00:00 20.4 18 Oeste 33 Oeste 0 -- -- 57
2019-05-25 13:00:00 18.6 18 Oeste 35 Sudoeste 0 -- -- 63
2019-05-25 12:00:00 17.5 16 Oeste 30 Oeste 0 -- -- 68
2019-05-25 11:00:00 15.7 18 Oeste 31 Oeste 0 -- -- 72
2019-05-25 10:00:00 14.1 22 Oeste 32 Oeste 0 -- -- 78
2019-05-25 09:00:00 13.4 19 Oeste 34 Oeste 0 -- -- 81
2019-05-25 08:00:00 11.7 14 Oeste 25 Sudoeste 0 -- -- 88
2019-05-25 07:00:00 11.2 14 Oeste 23 Sudoeste 0 -- -- 89
2019-05-25 06:00:00 11.2 13 Oeste 24 Oeste 0 -- -- 89
2019-05-25 05:00:00 11.4 14 Oeste 26 Oeste 0 -- -- 90
2019-05-25 04:00:00 11.7 14 Oeste 26 Oeste 0 -- -- 91
2019-05-25 03:00:00 11.8 14 Oeste 24 Oeste 0 -- -- 93
2019-05-25 02:00:00 12.2 13 Oeste 22 Oeste 0 -- -- 92
2019-05-25 01:00:00 12.5 13 Oeste 24 Oeste 0 -- -- 92
2019-05-25 00:00:00 12.9 13 Oeste 19 Sudoeste 0 -- -- 92